Time;durP1;ratioP1;P1;durP2;ratioP2;P2;SDS_P1;SDS_P2;PMS_P1;PMS_P2;Temp;Humidity;BMP_temperature;BMP_pressure;BME280_temperature;BME280_humidity;BME280_pressure;Samples;Min_cycle;Max_cycle;Signal;HPM_P1;HPM_P2
2021/04/04 00:01:41;;;;;;;21.38;6.97;;;6.30;84.30;;;;;;5049849;28;20085;-67
2021/04/04 00:04:06;;;;;;;32.55;7.07;;;6.30;84.30;;;;;;5050549;28;20032;-67
2021/04/04 00:06:32;;;;;;;29.13;7.20;;;6.20;84.80;;;;;;5050493;28;20080;-67
2021/04/04 00:08:58;;;;;;;26.98;6.93;;;6.20;84.80;;;;;;5050214;28;20292;-67
2021/04/04 00:11:26;;;;;;;21.23;6.15;;;6.20;84.80;;;;;;5049981;28;20048;-68
2021/04/04 00:13:52;;;;;;;23.65;6.65;;;6.20;84.90;;;;;;5052509;28;20029;-70
2021/04/04 00:16:17;;;;;;;22.00;6.47;;;6.20;84.90;;;;;;5051870;28;20094;-68
2021/04/04 00:18:43;;;;;;;17.52;5.95;;;6.20;84.90;;;;;;5051720;28;20036;-67
2021/04/04 00:21:09;;;;;;;23.63;6.75;;;6.20;84.90;;;;;;5034051;28;20029;-66
2021/04/04 00:23:35;;;;;;;22.65;6.78;;;6.20;84.70;;;;;;5050211;28;20037;-67
2021/04/04 00:26:02;;;;;;;23.45;7.43;;;6.20;84.50;;;;;;5052745;28;20115;-67
2021/04/04 00:28:28;;;;;;;24.17;8.25;;;6.20;84.80;;;;;;5052269;28;20032;-67
2021/04/04 00:30:53;;;;;;;20.70;7.35;;;6.20;84.60;;;;;;5052232;28;20021;-67
2021/04/04 00:33:19;;;;;;;23.30;7.72;;;6.10;85.00;;;;;;5033797;28;20036;-66
2021/04/04 00:35:48;;;;;;;27.60;9.48;;;6.10;85.00;;;;;;5051936;28;20108;-68
2021/04/04 00:38:14;;;;;;;28.88;7.43;;;6.10;85.00;;;;;;5031210;28;20027;-67
2021/04/04 00:40:40;;;;;;;22.58;8.10;;;6.10;85.20;;;;;;5052413;28;20410;-67
2021/04/04 00:43:06;;;;;;;28.75;8.27;;;6.10;84.90;;;;;;5052344;28;20029;-66
2021/04/04 00:45:34;;;;;;;24.83;7.53;;;6.00;84.90;;;;;;5051649;28;20091;-67
2021/04/04 00:48:01;;;;;;;31.67;7.97;;;6.00;84.90;;;;;;5051699;28;20044;-67
2021/04/04 00:50:32;;;;;;;28.80;7.93;;;6.00;85.10;;;;;;5033575;28;20567;-66
2021/04/04 00:52:59;;;;;;;21.38;7.10;;;5.90;85.30;;;;;;5050978;28;20044;-67
2021/04/04 00:55:25;;;;;;;20.50;7.68;;;5.90;85.20;;;;;;5050083;28;20021;-67
2021/04/04 00:57:52;;;;;;;25.33;7.43;;;5.90;85.20;;;;;;5050804;28;20035;-67
2021/04/04 01:00:21;;;;;;;26.58;8.05;;;5.90;85.20;;;;;;5032897;28;20489;-67
2021/04/04 01:02:49;;;;;;;32.45;8.43;;;5.80;85.50;;;;;;5050364;28;20095;-66
2021/04/04 01:05:18;;;;;;;29.88;7.93;;;5.80;85.40;;;;;;5032668;28;20544;-67
2021/04/04 01:07:47;;;;;;;27.88;7.80;;;5.80;85.40;;;;;;5048542;28;20021;-67
2021/04/04 01:10:14;;;;;;;30.27;8.63;;;5.80;85.40;;;;;;5051554;28;20041;-66
2021/04/04 01:12:53;;;;;;;21.70;7.05;;;5.80;85.50;;;;;;5050019;28;20021;-66
2021/04/04 01:15:31;;;;;;;26.33;7.78;;;5.80;85.70;;;;;;5049641;28;20083;-67
2021/04/04 01:18:14;;;;;;;18.30;7.32;;;5.80;85.70;;;;;;5049581;28;20028;-66
2021/04/04 01:20:52;;;;;;;29.42;8.43;;;5.70;85.50;;;;;;5051834;28;20033;-67
2021/04/04 01:23:38;;;;;;;30.13;8.18;;;5.70;85.80;;;;;;5053223;28;20025;-67
2021/04/04 01:26:13;;;;;;;24.85;7.45;;;5.60;85.70;;;;;;5050983;28;20033;-66
2021/04/04 01:28:42;;;;;;;25.80;7.13;;;5.60;86.00;;;;;;5048986;28;20490;-67
2021/04/04 01:31:09;;;;;;;21.63;8.02;;;5.60;85.70;;;;;;5049888;28;20444;-67
2021/04/04 01:33:36;;;;;;;28.13;7.57;;;5.70;85.80;;;;;;5048962;28;20032;-66
2021/04/04 01:36:07;;;;;;;21.63;6.90;;;5.70;85.80;;;;;;5049999;28;20079;-67
2021/04/04 01:38:41;;;;;;;24.52;7.47;;;5.70;85.60;;;;;;5050317;28;20033;-68
2021/04/04 01:41:22;;;;;;;22.13;7.20;;;5.70;85.60;;;;;;5050673;28;20102;-67
2021/04/04 01:43:55;;;;;;;23.52;7.05;;;5.70;85.50;;;;;;5049704;28;20052;-68
2021/04/04 01:46:21;;;;;;;17.63;6.65;;;5.70;85.40;;;;;;5050171;28;20041;-67
2021/04/04 01:48:48;;;;;;;19.88;6.35;;;5.70;85.60;;;;;;5049032;28;20364;-66
2021/04/04 01:51:14;;;;;;;25.40;7.10;;;5.60;85.50;;;;;;5030538;28;20138;-67
2021/04/04 01:53:41;;;;;;;21.45;6.20;;;5.60;85.60;;;;;;5050138;28;20032;-67
2021/04/04 01:56:08;;;;;;;18.48;7.13;;;5.60;85.70;;;;;;5050091;28;20047;-67
2021/04/04 01:58:37;;;;;;;29.52;6.38;;;5.60;85.50;;;;;;5049171;28;20021;-67
2021/04/04 02:01:04;;;;;;;18.63;6.53;;;5.60;85.70;;;;;;5047769;28;20112;-67
2021/04/04 02:03:31;;;;;;;27.77;6.38;;;5.60;85.70;;;;;;5048185;28;20493;-68
2021/04/04 02:05:58;;;;;;;18.95;5.60;;;5.60;85.70;;;;;;5048675;28;20135;-68
2021/04/04 02:08:25;;;;;;;19.02;5.75;;;5.60;86.10;;;;;;5047355;28;20036;-68
2021/04/04 02:10:52;;;;;;;22.98;7.13;;;5.60;85.60;;;;;;5045118;28;20389;-67
2021/04/04 02:13:19;;;;;;;26.05;7.10;;;5.60;85.50;;;;;;5030203;28;20021;-66
2021/04/04 02:15:46;;;;;;;20.80;6.53;;;5.70;85.70;;;;;;5051373;28;20094;-67
2021/04/04 02:18:12;;;;;;;19.63;5.90;;;5.60;85.50;;;;;;5049393;28;20047;-67
2021/04/04 02:20:39;;;;;;;24.15;6.53;;;5.60;85.70;;;;;;5050070;28;20033;-67
2021/04/04 02:23:08;;;;;;;27.15;6.80;;;5.60;85.80;;;;;;5048169;28;20502;-66
2021/04/04 02:25:33;;;;;;;21.63;6.55;;;5.60;85.80;;;;;;5048886;28;20033;-66
2021/04/04 02:28:01;;;;;;;21.23;6.45;;;5.60;85.70;;;;;;5047395;28;20029;-66
2021/04/04 02:30:27;;;;;;;22.50;6.38;;;5.60;85.60;;;;;;5050038;28;20024;-68
2021/04/04 02:33:01;;;;;;;20.42;6.00;;;5.60;85.70;;;;;;5049422;28;20468;-67
2021/04/04 02:35:35;;;;;;;22.38;6.20;;;5.60;85.60;;;;;;5048352;28;20079;-67
2021/04/04 02:38:21;;;;;;;21.02;5.15;;;5.60;85.70;;;;;;5047681;28;20237;-68
2021/04/04 02:40:48;;;;;;;23.73;6.50;;;5.60;85.90;;;;;;5046673;28;20059;-68
2021/04/04 02:43:23;;;;;;;19.13;6.40;;;5.50;85.80;;;;;;5049783;28;20146;-67
2021/04/04 02:45:51;;;;;;;26.90;5.57;;;5.50;85.80;;;;;;5048886;28;20052;-68
2021/04/04 02:48:19;;;;;;;20.30;5.78;;;5.50;85.80;;;;;;5047940;28;20477;-67
2021/04/04 02:50:47;;;;;;;16.52;6.28;;;5.50;85.90;;;;;;5047316;28;20044;-66
2021/04/04 02:53:15;;;;;;;18.27;5.85;;;5.50;85.80;;;;;;5048772;28;20082;-66
2021/04/04 02:55:42;;;;;;;26.83;6.05;;;5.50;86.10;;;;;;5049931;28;20386;-66
2021/04/04 02:58:10;;;;;;;20.55;5.95;;;5.50;85.80;;;;;;5047942;28;20029;-66
2021/04/04 03:00:40;;;;;;;24.92;6.00;;;5.50;85.60;;;;;;5046616;28;20433;-67
2021/04/04 03:03:07;;;;;;;15.73;5.85;;;5.40;85.70;;;;;;5047358;28;20036;-66
2021/04/04 03:05:33;;;;;;;19.02;5.93;;;5.40;85.80;;;;;;5046838;28;20091;-67
2021/04/04 03:08:03;;;;;;;16.17;5.18;;;5.40;85.70;;;;;;5048227;28;20032;-66
2021/04/04 03:10:32;;;;;;;20.23;6.25;;;5.40;85.60;;;;;;5049236;28;20417;-67
2021/04/04 03:12:59;;;;;;;19.02;5.60;;;5.40;85.50;;;;;;5014380;28;20051;-68
2021/04/04 03:15:27;;;;;;;22.50;5.57;;;5.30;85.60;;;;;;5047742;28;20040;-66
2021/04/04 03:17:55;;;;;;;18.90;4.93;;;5.40;85.90;;;;;;5046953;28;20040;-67
2021/04/04 03:20:22;;;;;;;19.08;6.35;;;5.30;85.70;;;;;;5049210;28;20143;-68
2021/04/04 03:22:49;;;;;;;25.60;5.82;;;5.30;85.70;;;;;;5049872;28;20033;-67
2021/04/04 03:25:17;;;;;;;19.35;5.18;;;5.30;85.70;;;;;;5047767;28;20048;-68
2021/04/04 03:27:45;;;;;;;21.10;6.65;;;5.20;85.70;;;;;;5049906;28;20464;-68
2021/04/04 03:30:35;;;;;;;22.65;6.75;;;5.20;85.90;;;;;;5048194;28;20482;-67
2021/04/04 03:33:04;;;;;;;20.90;5.55;;;5.20;85.90;;;;;;5046648;28;20516;-68
2021/04/04 03:35:31;;;;;;;19.38;5.53;;;5.20;85.90;;;;;;5046008;28;20066;-67
2021/04/04 03:37:59;;;;;;;19.45;5.82;;;5.20;85.90;;;;;;5047335;28;20064;-67
2021/04/04 03:40:25;;;;;;;17.52;5.97;;;5.20;85.60;;;;;;5048748;28;20115;-67
2021/04/04 03:42:53;;;;;;;20.40;5.60;;;5.20;85.70;;;;;;5048537;28;20388;-67
2021/04/04 03:45:20;;;;;;;26.10;5.70;;;5.10;85.80;;;;;;5048715;28;20044;-67
2021/04/04 03:47:47;;;;;;;21.02;5.57;;;5.10;86.00;;;;;;5045860;28;20389;-69
2021/04/04 03:50:16;;;;;;;23.52;6.15;;;5.10;86.10;;;;;;5045894;28;20033;-67
2021/04/04 03:52:42;;;;;;;25.13;6.18;;;5.20;85.90;;;;;;5047544;28;20382;-68
2021/04/04 03:55:09;;;;;;;22.15;6.70;;;5.20;86.10;;;;;;5049084;28;20032;-67
2021/04/04 03:57:38;;;;;;;25.20;5.85;;;5.10;85.90;;;;;;5030688;28;20079;-66
2021/04/04 04:00:07;;;;;;;18.85;6.30;;;5.10;86.00;;;;;;5045793;28;20105;-67
2021/04/04 04:02:35;;;;;;;18.45;6.07;;;5.10;86.20;;;;;;5048605;28;20144;-68
2021/04/04 04:05:02;;;;;;;23.55;7.15;;;5.00;86.30;;;;;;5045674;28;20040;-67
2021/04/04 04:07:30;;;;;;;19.65;5.35;;;5.00;86.40;;;;;;5050347;28;20040;-68
2021/04/04 04:09:58;;;;;;;21.92;6.15;;;5.10;86.40;;;;;;5046277;28;20036;-67
2021/04/04 04:12:26;;;;;;;26.83;5.80;;;5.10;86.40;;;;;;5048047;28;20056;-67
2021/04/04 04:14:53;;;;;;;20.98;5.15;;;5.10;86.20;;;;;;5045842;28;20025;-68
2021/04/04 04:17:19;;;;;;;17.13;5.30;;;5.10;86.40;;;;;;5047554;28;20116;-68
2021/04/04 04:19:45;;;;;;;18.02;4.95;;;5.10;86.20;;;;;;5045476;28;20103;-68
2021/04/04 04:22:11;;;;;;;18.77;4.90;;;5.10;86.10;;;;;;5048185;28;20056;-68
2021/04/04 04:24:38;;;;;;;19.67;5.18;;;5.10;86.00;;;;;;5048336;28;20120;-68
2021/04/04 04:27:05;;;;;;;18.30;5.13;;;5.10;86.00;;;;;;5047867;28;20021;-67
2021/04/04 04:29:32;;;;;;;18.23;5.05;;;5.10;85.90;;;;;;5046977;28;20021;-67
2021/04/04 04:32:00;;;;;;;25.83;5.45;;;5.20;85.80;;;;;;5048316;28;20489;-67
2021/04/04 04:34:28;;;;;;;17.55;5.97;;;5.20;86.00;;;;;;5046970;28;20040;-67
2021/04/04 04:36:54;;;;;;;16.92;4.68;;;5.20;85.70;;;;;;5045965;28;20107;-68
2021/04/04 04:39:21;;;;;;;22.48;5.63;;;5.20;85.80;;;;;;5046776;28;20040;-67
2021/04/04 04:41:50;;;;;;;23.38;5.20;;;5.20;85.70;;;;;;5048556;28;20581;-67
2021/04/04 04:44:22;;;;;;;22.67;5.80;;;5.20;85.60;;;;;;5046555;28;20163;-68
2021/04/04 04:46:49;;;;;;;23.13;5.25;;;5.30;85.60;;;;;;5046895;28;20037;-68
2021/04/04 04:49:15;;;;;;;17.08;5.13;;;5.30;85.30;;;;;;5047092;28;20029;-67
2021/04/04 04:51:41;;;;;;;21.30;5.07;;;5.30;85.20;;;;;;5051464;28;20087;-67
2021/04/04 04:54:08;;;;;;;15.43;4.30;;;5.20;85.20;;;;;;5049693;28;20502;-67
2021/04/04 04:56:41;;;;;;;13.20;4.55;;;5.20;85.10;;;;;;5051802;28;20126;-67
2021/04/04 04:59:08;;;;;;;15.15;4.47;;;5.30;85.20;;;;;;5048323;28;20082;-67
2021/04/04 05:01:46;;;;;;;17.33;5.63;;;5.30;84.70;;;;;;5050677;28;20104;-67
2021/04/04 05:04:13;;;;;;;25.65;4.72;;;5.30;84.80;;;;;;5051068;28;20028;-67
2021/04/04 05:06:41;;;;;;;23.15;4.95;;;5.30;85.20;;;;;;5050509;28;20025;-68
2021/04/04 05:09:08;;;;;;;22.23;5.15;;;5.30;84.70;;;;;;5049304;28;20029;-67
2021/04/04 05:11:39;;;;;;;19.02;5.07;;;5.30;84.70;;;;;;5050289;28;20089;-67
2021/04/04 05:14:04;;;;;;;21.97;5.23;;;5.30;84.90;;;;;;5051947;28;20340;-66
2021/04/04 05:16:30;;;;;;;15.50;4.65;;;5.30;84.80;;;;;;5049059;28;20318;-67
2021/04/04 05:18:57;;;;;;;16.77;4.35;;;5.30;84.90;;;;;;5051613;28;20039;-68
2021/04/04 05:21:30;;;;;;;26.52;5.63;;;5.30;84.80;;;;;;5051617;28;20045;-67
2021/04/04 05:24:01;;;;;;;15.15;4.20;;;5.30;84.90;;;;;;5049637;28;20533;-67
2021/04/04 05:26:32;;;;;;;21.10;4.95;;;5.30;84.90;;;;;;5048628;28;20094;-67
2021/04/04 05:29:20;;;;;;;18.88;4.60;;;5.40;84.90;;;;;;5048745;28;20033;-68
2021/04/04 05:31:45;;;;;;;12.07;4.00;;;5.30;84.90;;;;;;5050472;28;20033;-66
2021/04/04 05:34:13;;;;;;;13.05;4.22;;;5.40;84.90;;;;;;5051428;28;20521;-68
2021/04/04 05:36:48;;;;;;;16.48;3.80;;;5.40;84.60;;;;;;5050018;28;20029;-68
2021/04/04 05:39:17;;;;;;;14.02;4.00;;;5.40;84.80;;;;;;5049496;28;20029;-67
2021/04/04 05:41:48;;;;;;;16.45;3.55;;;5.50;84.60;;;;;;5047521;28;20130;-67
2021/04/04 05:44:18;;;;;;;18.02;3.53;;;5.50;84.50;;;;;;5050026;28;20137;-67
2021/04/04 05:46:49;;;;;;;16.52;3.90;;;5.50;84.20;;;;;;5049186;28;20032;-67
2021/04/04 05:49:30;;;;;;;13.02;3.88;;;5.50;84.50;;;;;;5049452;28;20033;-68
2021/04/04 05:52:11;;;;;;;17.13;3.70;;;5.70;84.50;;;;;;5051356;28;20059;-67
2021/04/04 05:55:01;;;;;;;18.98;3.92;;;5.70;83.90;;;;;;5049653;28;20108;-66
2021/04/04 05:57:40;;;;;;;18.83;3.30;;;5.70;83.70;;;;;;5048720;28;20036;-65
2021/04/04 06:00:10;;;;;;;16.65;3.08;;;5.60;84.00;;;;;;5047748;28;20429;-67
2021/04/04 06:03:12;;;;;;;15.88;3.15;;;5.60;84.10;;;;;;5046590;28;20160;-67
2021/04/04 06:06:09;;;;;;;14.13;3.25;;;5.60;84.40;;;;;;5033255;28;20154;-67
2021/04/04 06:09:01;;;;;;;15.50;3.50;;;5.70;83.70;;;;;;5051429;28;20032;-67
2021/04/04 06:11:47;;;;;;;18.42;3.55;;;5.70;83.40;;;;;;5049241;28;20033;-66
2021/04/04 06:14:40;;;;;;;13.90;2.88;;;5.70;83.40;;;;;;5047604;28;20437;-67
2021/04/04 06:17:12;;;;;;;13.73;3.35;;;5.70;83.50;;;;;;5050515;28;20123;-67
2021/04/04 06:19:57;;;;;;;17.88;3.60;;;5.70;83.30;;;;;;5030809;28;20037;-67
2021/04/04 06:22:37;;;;;;;11.85;2.95;;;5.70;83.30;;;;;;5049369;28;20087;-67
2021/04/04 06:25:38;;;;;;;14.23;3.00;;;5.70;83.40;;;;;;5049737;28;20541;-67
2021/04/04 06:28:40;;;;;;;18.08;2.83;;;5.80;83.20;;;;;;5047907;28;20028;-66
2021/04/04 06:31:16;;;;;;;14.90;2.53;;;5.80;82.90;;;;;;5049821;28;20039;-66
2021/04/04 06:33:45;;;;;;;7.68;2.38;;;5.90;83.00;;;;;;5048570;28;20029;-66
2021/04/04 06:36:28;;;;;;;8.70;2.88;;;5.90;82.80;;;;;;5050370;28;20079;-67
2021/04/04 06:39:03;;;;;;;14.60;2.83;;;6.00;82.80;;;;;;5048463;28;20139;-67
2021/04/04 06:41:48;;;;;;;14.68;2.90;;;6.00;82.60;;;;;;5049307;28;20112;-67
2021/04/04 06:44:13;;;;;;;13.98;2.90;;;6.00;82.70;;;;;;5048355;28;20031;-67
2021/04/04 06:46:48;;;;;;;14.57;3.20;;;6.00;82.70;;;;;;5046396;28;20493;-67
2021/04/04 06:49:26;;;;;;;11.93;3.20;;;6.00;82.60;;;;;;5047024;28;20029;-67
2021/04/04 06:52:17;;;;;;;17.13;3.38;;;6.10;82.20;;;;;;5049183;28;20025;-67
2021/04/04 06:55:10;;;;;;;18.20;3.15;;;6.10;82.30;;;;;;5048867;28;20036;-67
2021/04/04 06:57:47;;;;;;;16.10;3.55;;;6.10;81.70;;;;;;5048939;28;20021;-67
2021/04/04 07:00:14;;;;;;;12.27;2.95;;;6.10;81.90;;;;;;5044408;28;20060;-67
2021/04/04 07:02:52;;;;;;;11.05;2.20;;;6.20;81.70;;;;;;5046495;28;20386;-67
2021/04/04 07:05:20;;;;;;;12.05;3.05;;;6.20;81.60;;;;;;5048975;28;20462;-67
2021/04/04 07:08:03;;;;;;;10.60;3.10;;;6.20;81.30;;;;;;5048503;28;20389;-66
2021/04/04 07:10:58;;;;;;;13.63;2.67;;;6.20;81.40;;;;;;5028851;28;20214;-68
2021/04/04 07:14:01;;;;;;;13.30;2.97;;;6.20;81.30;;;;;;5046296;28;20079;-65
2021/04/04 07:16:45;;;;;;;16.23;2.95;;;6.30;82.10;;;;;;5048642;28;20082;-68
2021/04/04 07:19:48;;;;;;;8.63;3.10;;;6.30;81.60;;;;;;5045356;28;20044;-67
2021/04/04 07:22:41;;;;;;;16.10;3.13;;;6.30;82.10;;;;;;5047437;28;20045;-66
2021/04/04 07:25:25;;;;;;;13.02;2.90;;;6.30;82.40;;;;;;5044038;28;20120;-66
2021/04/04 07:28:25;;;;;;;17.48;3.80;;;6.30;82.50;;;;;;5048109;28;20029;-66
2021/04/04 07:31:04;;;;;;;12.93;3.90;;;6.30;83.20;;;;;;5029758;28;20028;-67
2021/04/04 07:34:01;;;;;;;13.73;2.90;;;6.30;83.10;;;;;;5047754;28;20021;-67
2021/04/04 07:36:44;;;;;;;14.48;3.10;;;6.30;83.60;;;;;;5028452;28;20089;-66
2021/04/04 07:39:18;;;;;;;14.30;3.85;;;6.30;83.50;;;;;;5047171;28;20045;-68
2021/04/04 07:42:00;;;;;;;11.27;3.50;;;6.30;83.90;;;;;;5047503;28;20486;-68
2021/04/04 07:44:35;;;;;;;18.40;4.63;;;6.30;84.50;;;;;;5047211;28;20359;-68
2021/04/04 07:47:32;;;;;;;13.50;4.38;;;6.30;84.90;;;;;;5046118;28;20105;-69
2021/04/04 07:50:01;;;;;;;11.90;4.28;;;6.30;86.00;;;;;;5027656;28;20029;-68
2021/04/04 07:52:29;;;;;;;17.92;4.78;;;6.30;85.60;;;;;;5043711;28;20107;-69
2021/04/04 07:55:08;;;;;;;11.05;4.30;;;6.30;86.00;;;;;;5047356;28;20050;-68
2021/04/04 07:57:42;;;;;;;11.00;4.00;;;6.30;86.20;;;;;;5046142;28;20098;-68
2021/04/04 08:00:10;;;;;;;16.48;4.85;;;6.40;86.40;;;;;;5047632;28;20039;-66
2021/04/04 08:03:03;;;;;;;17.45;5.20;;;6.40;86.00;;;;;;5043586;28;20029;-69
2021/04/04 08:05:31;;;;;;;20.55;5.18;;;6.40;86.20;;;;;;5046680;28;20021;-66
2021/04/04 08:07:59;;;;;;;16.52;5.55;;;6.40;86.80;;;;;;5043591;28;20379;-66
2021/04/04 08:10:33;;;;;;;20.35;5.15;;;6.40;86.40;;;;;;5047294;28;20037;-67
2021/04/04 08:13:46;;;;;;;18.27;6.72;;;6.40;86.20;;;;;;5047546;28;20029;-67
2021/04/04 08:16:36;;;;;;;20.75;6.68;;;6.50;86.40;;;;;;5012078;28;20087;-65
2021/04/04 08:19:02;;;;;;;19.48;5.90;;;6.50;86.00;;;;;;5048152;28;20036;-67
2021/04/04 08:21:37;;;;;;;16.42;5.97;;;6.50;86.30;;;;;;5046943;28;20033;-67
2021/04/04 08:24:12;;;;;;;17.70;6.38;;;6.50;86.10;;;;;;5048272;28;20656;-69
2021/04/04 08:26:53;;;;;;;15.43;5.05;;;6.50;86.00;;;;;;5049038;28;20505;-67
2021/04/04 08:29:40;;;;;;;17.80;5.88;;;6.50;86.00;;;;;;5044280;28;20437;-68
2021/04/04 08:32:11;;;;;;;14.80;5.60;;;6.60;85.70;;;;;;5048797;28;20032;-69
2021/04/04 08:34:40;;;;;;;15.75;5.05;;;6.60;85.50;;;;;;5049237;28;20501;-67
2021/04/04 08:37:21;;;;;;;13.23;4.97;;;6.60;85.60;;;;;;5049308;28;20082;-68
2021/04/04 08:39:55;;;;;;;16.80;5.25;;;6.60;86.20;;;;;;5050929;28;20029;-67
2021/04/04 08:42:21;;;;;;;17.92;5.03;;;6.70;85.70;;;;;;5050508;28;20040;-68
2021/04/04 08:45:10;;;;;;;13.30;4.85;;;6.60;86.50;;;;;;5051863;28;20037;-68
2021/04/04 08:47:40;;;;;;;14.65;4.85;;;6.60;86.40;;;;;;5049605;28;20036;-68
2021/04/04 08:50:15;;;;;;;15.73;5.88;;;6.60;87.30;;;;;;5048397;28;20035;-67
2021/04/04 08:52:49;;;;;;;12.98;5.32;;;6.60;86.60;;;;;;5051129;28;20040;-67
2021/04/04 08:55:26;;;;;;;;;;;6.60;86.70;;;;;;5051204;28;20112;-67
2021/04/04 08:57:53;;;;;;;14.10;5.43;;;6.70;86.10;;;;;;5048571;28;19967;-69
2021/04/04 09:00:23;;;;;;;16.50;5.13;;;6.90;85.10;;;;;;5049220;28;20025;-68
2021/04/04 09:03:08;;;;;;;14.60;4.88;;;7.00;85.30;;;;;;5047955;28;20566;-68
2021/04/04 09:05:35;;;;;;;13.32;4.72;;;6.90;85.50;;;;;;5050132;28;20041;-68
2021/04/04 09:08:04;;;;;;;16.42;4.72;;;6.80;85.80;;;;;;5048185;28;20532;-68
2021/04/04 09:10:35;;;;;;;10.40;3.83;;;6.80;85.80;;;;;;5047648;28;20120;-67
2021/04/04 09:13:08;;;;;;;17.17;5.65;;;6.80;85.70;;;;;;5050439;28;20056;-68
2021/04/04 09:15:50;;;;;;;14.70;4.55;;;6.80;85.10;;;;;;5047615;28;20021;-68
2021/04/04 09:18:17;;;;;;;10.68;3.88;;;6.90;84.60;;;;;;5043725;28;20037;-68
2021/04/04 09:20:44;;;;;;;9.73;3.50;;;7.00;83.50;;;;;;5046967;28;20041;-68
2021/04/04 09:23:12;;;;;;;10.25;3.30;;;7.00;83.40;;;;;;5046068;28;20474;-67
2021/04/04 09:25:49;;;;;;;11.43;4.13;;;6.90;82.90;;;;;;5048378;28;20032;-68
2021/04/04 09:28:16;;;;;;;12.95;3.40;;;7.00;82.70;;;;;;5047754;28;20033;-68
2021/04/04 09:30:45;;;;;;;11.35;3.72;;;7.10;81.80;;;;;;5049988;28;20529;-68
2021/04/04 09:33:17;;;;;;;9.57;2.75;;;7.00;82.10;;;;;;5047784;28;20028;-68
2021/04/04 09:35:46;;;;;;;7.97;2.28;;;7.10;81.90;;;;;;5050532;28;20395;-67
2021/04/04 09:38:15;;;;;;;10.52;2.72;;;7.30;83.10;;;;;;5048474;28;20037;-69
2021/04/04 09:40:42;;;;;;;7.95;2.30;;;7.60;79.00;;;;;;5050157;28;20037;-68
2021/04/04 09:43:17;;;;;;;9.40;2.72;;;7.50;79.60;;;;;;5050304;28;20559;-68
2021/04/04 09:45:43;;;;;;;9.10;2.90;;;7.40;79.90;;;;;;5048404;28;20145;-69
2021/04/04 09:48:26;;;;;;;9.73;3.10;;;7.40;79.70;;;;;;5047278;28;20029;-68
2021/04/04 09:51:03;;;;;;;12.48;3.05;;;7.40;80.60;;;;;;5030167;28;20124;-69
2021/04/04 09:53:41;;;;;;;14.30;3.75;;;7.30;80.20;;;;;;5049418;28;20043;-69
2021/04/04 09:56:12;;;;;;;8.85;3.05;;;7.30;80.40;;;;;;5050060;28;20021;-70
2021/04/04 09:58:40;;;;;;;6.30;2.88;;;7.30;80.70;;;;;;5047648;28;20021;-67
2021/04/04 10:01:23;;;;;;;16.17;3.55;;;7.30;81.00;;;;;;5048537;28;20374;-68
2021/04/04 10:03:55;;;;;;;11.55;2.60;;;7.30;81.40;;;;;;5048698;28;20103;-67
2021/04/04 10:06:21;;;;;;;9.75;3.50;;;7.40;80.90;;;;;;5049048;28;20033;-67
2021/04/04 10:09:05;;;;;;;7.97;2.60;;;7.40;81.30;;;;;;5049335;28;20093;-68
2021/04/04 10:11:32;;;;;;;6.22;2.72;;;7.40;81.50;;;;;;5048585;28;20389;-68
2021/04/04 10:14:13;;;;;;;11.27;2.75;;;7.40;80.20;;;;;;5047710;28;20394;-68
2021/04/04 10:16:39;;;;;;;9.03;2.90;;;7.50;80.70;;;;;;5049567;28;20439;-68
2021/04/04 10:19:09;;;;;;;10.43;2.55;;;7.50;80.30;;;;;;5048258;28;20032;-68
2021/04/04 10:21:39;;;;;;;7.80;2.85;;;7.40;80.60;;;;;;5049081;28;20029;-68
2021/04/04 10:24:23;;;;;;;9.73;3.17;;;7.50;79.70;;;;;;5048301;28;20477;-68
2021/04/04 10:27:27;;;;;;;10.95;3.45;;;7.50;79.60;;;;;;5049308;28;20036;-72
2021/04/04 10:30:16;;;;;;;14.60;3.30;;;7.50;79.90;;;;;;5037230;28;20033;-68
2021/04/04 10:32:49;;;;;;;12.25;2.92;;;7.50;80.00;;;;;;5047416;28;20027;-68
2021/04/04 10:35:35;;;;;;;8.50;2.30;;;7.60;78.50;;;;;;5048186;28;20561;-68
2021/04/04 10:38:09;;;;;;;12.48;2.75;;;7.60;78.60;;;;;;5047447;28;20036;-69
2021/04/04 10:40:43;;;;;;;13.45;2.42;;;7.80;78.30;;;;;;5047200;28;20504;-68
2021/04/04 10:43:11;;;;;;;13.40;2.20;;;7.80;77.20;;;;;;5048293;28;20037;-68
2021/04/04 10:45:53;;;;;;;7.82;2.63;;;7.70;77.50;;;;;;5043803;28;20031;-69
2021/04/04 10:48:19;;;;;;;12.35;3.08;;;7.60;78.60;;;;;;5029265;28;20055;-68
2021/04/04 10:50:47;;;;;;;9.80;2.35;;;7.50;78.90;;;;;;5041479;28;20048;-68
2021/04/04 10:53:12;;;;;;;7.93;2.45;;;7.50;78.70;;;;;;5037538;28;20033;-69
2021/04/04 10:55:39;;;;;;;7.38;2.03;;;7.70;76.70;;;;;;5039227;28;20028;-77
2021/04/04 10:58:04;;;;;;;10.60;2.58;;;7.70;76.20;;;;;;5037082;28;20602;-69
2021/04/04 11:00:30;;;;;;;8.00;1.92;;;7.80;75.90;;;;;;5044534;28;20053;-68
2021/04/04 11:02:57;;;;;;;10.43;2.10;;;7.70;76.10;;;;;;5046579;28;20044;-68
2021/04/04 11:05:23;;;;;;;6.78;2.00;;;7.80;76.50;;;;;;5047291;28;20029;-68
2021/04/04 11:07:50;;;;;;;9.90;2.33;;;7.80;75.90;;;;;;5046118;28;20025;-68
2021/04/04 11:10:19;;;;;;;8.60;2.05;;;7.90;75.50;;;;;;5046396;28;20028;-68
2021/04/04 11:12:46;;;;;;;9.82;2.42;;;7.90;75.00;;;;;;5047669;28;20051;-68
2021/04/04 11:15:16;;;;;;;11.77;2.30;;;7.90;75.30;;;;;;5047213;28;20116;-68
2021/04/04 11:17:44;;;;;;;8.90;2.60;;;7.90;75.10;;;;;;5042376;28;20043;-69
2021/04/04 11:20:15;;;;;;;7.25;2.47;;;8.00;74.90;;;;;;5041369;28;20039;-67
2021/04/04 11:22:41;;;;;;;7.03;2.00;;;8.00;75.20;;;;;;5039277;28;20027;-68
2021/04/04 11:25:11;;;;;;;8.30;1.90;;;7.90;75.40;;;;;;5045845;28;20120;-69
2021/04/04 11:27:45;;;;;;;12.73;2.17;;;7.90;75.40;;;;;;5030995;28;20495;-68
2021/04/04 11:30:37;;;;;;;11.63;2.40;;;8.00;74.80;;;;;;5046292;28;20039;-68
2021/04/04 11:33:15;;;;;;;9.65;1.95;;;8.10;74.70;;;;;;5047481;28;20044;-68
2021/04/04 11:36:11;;;;;;;10.32;2.70;;;8.00;75.30;;;;;;5046561;28;20017;-68
2021/04/04 11:38:52;;;;;;;7.13;2.20;;;8.00;75.60;;;;;;5028104;28;20036;-68
2021/04/04 11:41:29;;;;;;;9.75;2.00;;;8.00;75.90;;;;;;5046913;28;20090;-68
2021/04/04 11:44:27;;;;;;;8.90;2.58;;;8.00;75.50;;;;;;5030067;28;20036;-68
2021/04/04 11:46:56;;;;;;;10.10;3.03;;;8.10;74.80;;;;;;5046675;28;20033;-67
2021/04/04 11:49:41;;;;;;;10.48;2.20;;;8.10;74.80;;;;;;5043852;28;20100;-68
2021/04/04 11:52:07;;;;;;;8.95;1.90;;;8.10;75.10;;;;;;5044129;28;20502;-68
2021/04/04 11:55:06;;;;;;;10.35;2.33;;;8.00;75.20;;;;;;5045561;28;20025;-68
2021/04/04 11:57:37;;;;;;;10.07;2.97;;;8.00;75.50;;;;;;5050095;28;20040;-68
2021/04/04 12:00:18;;;;;;;8.02;2.00;;;8.00;75.40;;;;;;5030985;28;20124;-68
2021/04/04 12:02:50;;;;;;;6.50;2.88;;;8.10;75.10;;;;;;5049419;28;20056;-67
2021/04/04 12:05:18;;;;;;;14.25;7.60;;;8.10;74.70;;;;;;5050825;28;20025;-68
2021/04/04 12:07:47;;;;;;;9.32;2.83;;;8.00;75.10;;;;;;5048543;28;20032;-69
2021/04/04 12:10:17;;;;;;;9.40;2.70;;;8.00;75.40;;;;;;5050402;28;20529;-67
2021/04/04 12:12:43;;;;;;;6.80;2.15;;;8.10;75.00;;;;;;5051826;28;20669;-68
2021/04/04 12:15:15;;;;;;;4.70;2.15;;;8.20;74.70;;;;;;5051116;28;20032;-68
2021/04/04 12:17:55;;;;;;;4.60;1.45;;;8.20;74.90;;;;;;5050308;28;20059;-67
2021/04/04 12:20:23;;;;;;;9.35;1.67;;;8.20;74.90;;;;;;5048778;28;20445;-68
2021/04/04 12:22:49;;;;;;;9.25;1.52;;;8.10;75.50;;;;;;5049572;28;20029;-68
2021/04/04 12:25:23;;;;;;;2.58;1.50;;;8.20;75.00;;;;;;5049897;28;20037;-68
2021/04/04 12:27:51;;;;;;;7.28;1.45;;;8.20;75.20;;;;;;5050712;28;20091;-68
2021/04/04 12:30:27;;;;;;;4.68;1.38;;;8.10;75.80;;;;;;5051792;28;20059;-68
2021/04/04 12:33:00;;;;;;;6.80;1.40;;;8.20;75.80;;;;;;5051236;28;20029;-67
2021/04/04 12:35:26;;;;;;;5.57;1.77;;;8.20;75.90;;;;;;5050533;28;20029;-70
2021/04/04 12:37:52;;;;;;;4.65;1.67;;;8.20;75.90;;;;;;5047659;28;20017;-69
2021/04/04 12:40:18;;;;;;;5.85;1.65;;;8.20;76.10;;;;;;5049652;28;20036;-69
2021/04/04 12:42:44;;;;;;;7.32;2.30;;;8.20;76.60;;;;;;5049462;28;20032;-70
2021/04/04 12:45:15;;;;;;;7.47;2.13;;;8.20;76.60;;;;;;5052504;28;20485;-70
2021/04/04 12:47:43;;;;;;;;;;;8.10;76.80;;;;;;5046492;28;20542;-70
2021/04/04 12:50:11;;;;;;;6.65;2.95;;;8.10;76.70;;;;;;5050031;28;20285;-69
2021/04/04 12:52:44;;;;;;;4.40;2.03;;;8.10;77.30;;;;;;5048544;28;20486;-69
2021/04/04 12:55:24;;;;;;;10.02;1.98;;;8.20;77.00;;;;;;5044577;28;20386;-69
2021/04/04 12:58:10;;;;;;;6.90;1.80;;;8.20;76.80;;;;;;5049240;28;20102;-71
2021/04/04 13:00:40;;;;;;;7.43;2.05;;;8.20;76.90;;;;;;5048117;28;20033;-69
2021/04/04 13:03:17;;;;;;;5.07;2.53;;;8.10;77.40;;;;;;5048862;28;20041;-69
2021/04/04 13:05:45;;;;;;;6.13;2.53;;;8.20;77.50;;;;;;5045087;28;20359;-69
2021/04/04 13:08:19;;;;;;;6.68;1.88;;;8.10;77.70;;;;;;5047559;28;20033;-69
2021/04/04 13:10:48;;;;;;;6.53;2.00;;;8.10;78.20;;;;;;5049306;28;20020;-69
2021/04/04 13:13:19;;;;;;;4.13;1.30;;;8.20;77.60;;;;;;5049904;28;20490;-69
2021/04/04 13:15:45;;;;;;;7.22;1.85;;;8.20;76.60;;;;;;5050523;28;20028;-69
2021/04/04 13:18:34;;;;;;;7.35;1.88;;;8.30;76.20;;;;;;5050168;28;20037;-69
2021/04/04 13:21:05;;;;;;;6.03;2.35;;;8.30;76.50;;;;;;5048749;28;20033;-69